Time;durP1;ratioP1;P1;durP2;ratioP2;P2;SDS_P1;SDS_P2;PMS_P1;PMS_P2;Temp;Humidity;BMP_temperature;BMP_pressure;BME280_temperature;BME280_humidity;BME280_pressure;Samples;Min_cycle;Max_cycle;Signal;HPM_P1;HPM_P2
2023/07/20 00:00:24;;;;;;;3.30;2.30;;;21.60;95.40;;;;;;5053153;28;20512;-69
2023/07/20 00:02:52;;;;;;;3.20;2.23;;;21.70;95.50;;;;;;5035779;28;20955;-69
2023/07/20 00:05:21;;;;;;;4.17;2.70;;;21.70;95.70;;;;;;5053341;28;20454;-68
2023/07/20 00:07:51;;;;;;;3.83;2.50;;;21.70;96.10;;;;;;5053216;28;20824;-68
2023/07/20 00:10:18;;;;;;;3.70;2.40;;;21.60;96.20;;;;;;5053239;28;20479;-68
2023/07/20 00:12:47;;;;;;;4.57;2.60;;;21.50;96.10;;;;;;5053271;28;20457;-68
2023/07/20 00:15:14;;;;;;;3.83;2.60;;;21.60;95.10;;;;;;5035227;28;20519;-68
2023/07/20 00:17:41;;;;;;;3.07;2.20;;;21.50;93.80;;;;;;5053095;28;20461;-68
2023/07/20 00:20:10;;;;;;;3.83;2.40;;;21.50;94.10;;;;;;5052970;28;20453;-69
2023/07/20 00:22:37;;;;;;;2.70;2.10;;;21.50;93.80;;;;;;5053065;28;20459;-68
2023/07/20 00:25:04;;;;;;;5.30;2.40;;;21.50;93.30;;;;;;5052748;28;20466;-68
2023/07/20 00:27:31;;;;;;;3.47;2.33;;;21.50;93.10;;;;;;5052705;28;20485;-68
2023/07/20 00:30:00;;;;;;;2.87;2.00;;;21.20;93.30;;;;;;5052726;28;20462;-68
2023/07/20 00:32:27;;;;;;;4.17;2.40;;;21.30;93.60;;;;;;5052858;28;20465;-69
2023/07/20 00:34:54;;;;;;;4.63;2.37;;;21.40;93.30;;;;;;5035179;28;20457;-68
2023/07/20 00:37:22;;;;;;;4.33;2.27;;;21.40;92.80;;;;;;5052792;28;20456;-68
2023/07/20 00:39:49;;;;;;;4.10;2.40;;;21.40;92.80;;;;;;5052794;28;20469;-68
2023/07/20 00:42:16;;;;;;;3.60;2.30;;;21.20;93.40;;;;;;5018558;28;20450;-68
2023/07/20 00:44:46;;;;;;;3.83;2.30;;;21.00;94.20;;;;;;5052585;28;20528;-69
2023/07/20 00:47:15;;;;;;;5.53;2.37;;;20.90;95.20;;;;;;5052766;28;20482;-68
2023/07/20 00:49:42;;;;;;;4.07;2.17;;;20.70;96.50;;;;;;5052447;28;20948;-68
2023/07/20 00:52:12;;;;;;;2.83;2.20;;;20.60;96.70;;;;;;5052907;28;20540;-68
2023/07/20 00:54:39;;;;;;;4.27;2.30;;;20.50;98.00;;;;;;5052385;28;20458;-69
2023/07/20 00:57:08;;;;;;;3.40;2.43;;;20.40;98.00;;;;;;5052670;28;20544;-68
2023/07/20 00:59:36;;;;;;;3.13;2.10;;;20.30;98.00;;;;;;5052021;28;20465;-69
2023/07/20 01:02:05;;;;;;;4.67;2.20;;;20.10;98.00;;;;;;5052626;28;20509;-69
2023/07/20 01:04:36;;;;;;;3.77;2.30;;;20.10;98.00;;;;;;5051949;28;20478;-68
2023/07/20 01:07:12;;;;;;;4.10;2.30;;;20.10;98.00;;;;;;5034444;28;20896;-69
2023/07/20 01:09:44;;;;;;;5.07;2.30;;;20.00;98.00;;;;;;5034675;28;20526;-68
2023/07/20 01:12:19;;;;;;;3.33;2.30;;;19.90;98.00;;;;;;5052299;28;20461;-68
2023/07/20 01:14:46;;;;;;;4.20;2.37;;;19.70;98.00;;;;;;5052108;28;20825;-68
2023/07/20 01:17:14;;;;;;;3.00;2.20;;;19.70;98.00;;;;;;5052114;28;20457;-68
2023/07/20 01:19:42;;;;;;;4.30;2.40;;;19.80;98.00;;;;;;5052005;28;20473;-68
2023/07/20 01:22:22;;;;;;;3.60;2.27;;;19.90;98.00;;;;;;5051908;28;20454;-68
2023/07/20 01:25:12;;;;;;;5.77;2.77;;;20.00;98.00;;;;;;5051972;28;20851;-68
2023/07/20 01:28:36;;;;;;;4.87;2.47;;;20.10;96.90;;;;;;5034757;28;20495;-68
2023/07/20 01:31:18;;;;;;;2.83;2.23;;;20.20;97.10;;;;;;4949179;28;20519;-68
2023/07/20 01:33:47;;;;;;;12.60;2.50;;;20.10;96.30;;;;;;5040203;28;20466;-68
2023/07/20 01:36:17;;;;;;;3.10;2.07;;;20.10;96.70;;;;;;5051930;28;20446;-68
2023/07/20 01:38:45;;;;;;;2.83;2.00;;;20.10;96.50;;;;;;5051741;28;20465;-68
2023/07/20 01:41:13;;;;;;;2.70;2.10;;;20.20;96.10;;;;;;5052031;28;20919;-69
2023/07/20 01:43:41;;;;;;;3.83;2.47;;;20.20;96.20;;;;;;5034363;28;20561;-69
2023/07/20 01:46:08;;;;;;;3.20;2.30;;;20.20;96.10;;;;;;5034194;28;20864;-68
2023/07/20 01:48:37;;;;;;;3.30;2.10;;;20.10;95.70;;;;;;5051804;28;20951;-68
2023/07/20 01:51:04;;;;;;;2.83;2.20;;;20.10;96.10;;;;;;5051782;28;20935;-68
2023/07/20 01:53:32;;;;;;;3.80;2.40;;;20.20;95.90;;;;;;5051606;28;20828;-69
2023/07/20 01:55:59;;;;;;;2.80;2.10;;;20.20;96.70;;;;;;5051379;28;20457;-68
2023/07/20 01:58:29;;;;;;;3.30;2.40;;;20.10;96.40;;;;;;5051483;28;20453;-68
2023/07/20 02:00:56;;;;;;;3.10;2.20;;;20.20;96.00;;;;;;5051508;28;20557;-68
2023/07/20 02:03:26;;;;;;;4.13;2.27;;;20.20;96.10;;;;;;5051422;28;20453;-68
2023/07/20 02:05:57;;;;;;;5.67;2.30;;;20.00;96.20;;;;;;5051459;28;20460;-68
2023/07/20 02:08:24;;;;;;;2.20;1.93;;;20.00;96.60;;;;;;5051455;28;20493;-68
2023/07/20 02:10:52;;;;;;;3.37;2.30;;;20.00;96.40;;;;;;5051436;28;20460;-68
2023/07/20 02:13:20;;;;;;;3.03;2.20;;;20.10;96.50;;;;;;5051476;28;20469;-68
2023/07/20 02:15:49;;;;;;;4.53;2.40;;;20.00;96.50;;;;;;5033820;28;20461;-68
2023/07/20 02:18:16;;;;;;;2.77;1.93;;;19.90;97.10;;;;;;5050961;28;20460;-68
2023/07/20 02:20:44;;;;;;;2.67;2.10;;;19.80;98.00;;;;;;5051366;28;20465;-68
2023/07/20 02:23:13;;;;;;;3.57;2.30;;;19.70;98.00;;;;;;5054581;28;20537;-68
2023/07/20 02:25:40;;;;;;;2.97;2.40;;;19.50;98.00;;;;;;5037522;28;20470;-68
2023/07/20 02:28:09;;;;;;;3.00;2.10;;;19.40;98.00;;;;;;5055106;28;20595;-68
2023/07/20 02:30:39;;;;;;;8.97;2.17;;;19.30;98.00;;;;;;5037425;28;20467;-68
2023/07/20 02:33:06;;;;;;;3.87;2.50;;;19.30;98.00;;;;;;5037616;28;20485;-68
2023/07/20 02:35:33;;;;;;;3.03;2.20;;;19.20;98.00;;;;;;5055054;28;20936;-68
2023/07/20 02:38:00;;;;;;;2.97;2.00;;;19.30;98.00;;;;;;5055298;28;20453;-68
2023/07/20 02:40:29;;;;;;;4.07;2.30;;;19.20;98.00;;;;;;5055091;28;20453;-68
2023/07/20 02:42:56;;;;;;;3.67;2.23;;;19.00;98.00;;;;;;5055276;28;20460;-69
2023/07/20 02:45:23;;;;;;;2.37;1.90;;;18.80;98.00;;;;;;5054986;28;20466;-68
2023/07/20 02:47:50;;;;;;;2.90;2.03;;;18.80;98.00;;;;;;5054637;28;20481;-68
2023/07/20 02:50:17;;;;;;;5.03;2.20;;;18.60;98.00;;;;;;5054723;28;20972;-68
2023/07/20 02:52:45;;;;;;;2.87;2.10;;;18.70;98.00;;;;;;5037043;28;20470;-68
2023/07/20 02:55:12;;;;;;;3.00;2.00;;;18.70;98.00;;;;;;5054633;28;20858;-68
2023/07/20 02:57:41;;;;;;;6.00;2.33;;;18.70;98.00;;;;;;5054333;28;20465;-68
2023/07/20 03:00:11;;;;;;;2.97;2.20;;;18.50;98.00;;;;;;5054398;28;20468;-68
2023/07/20 03:02:38;;;;;;;2.77;2.00;;;18.50;98.00;;;;;;5052934;28;20802;-68
2023/07/20 03:05:07;;;;;;;4.37;2.53;;;18.30;98.00;;;;;;5036766;28;20454;-69
2023/07/20 03:07:34;;;;;;;3.57;2.23;;;18.20;98.00;;;;;;5054382;28;20535;-68
2023/07/20 03:10:01;;;;;;;3.90;2.10;;;18.10;98.00;;;;;;5036592;28;20469;-68
2023/07/20 03:12:28;;;;;;;3.13;2.27;;;18.10;98.00;;;;;;5054485;28;20454;-68
2023/07/20 03:14:57;;;;;;;2.70;2.10;;;18.00;98.00;;;;;;5054266;28;20517;-68
2023/07/20 03:17:26;;;;;;;3.40;2.30;;;17.90;98.00;;;;;;5054205;28;20556;-68
2023/07/20 03:19:54;;;;;;;3.10;2.10;;;17.90;98.00;;;;;;5054277;28;20546;-68
2023/07/20 03:22:21;;;;;;;2.67;2.13;;;17.90;98.00;;;;;;5036664;28;20486;-68
2023/07/20 03:24:49;;;;;;;4.17;2.20;;;17.90;98.00;;;;;;5054329;28;20486;-68
2023/07/20 03:27:16;;;;;;;4.23;2.20;;;17.90;98.00;;;;;;5036598;28;20824;-68
2023/07/20 03:29:44;;;;;;;5.30;2.50;;;17.90;98.00;;;;;;5036417;28;20458;-68
2023/07/20 03:32:12;;;;;;;2.83;2.10;;;17.90;98.00;;;;;;5054170;28;20446;-68
2023/07/20 03:34:40;;;;;;;3.20;2.33;;;18.00;98.00;;;;;;5054139;28;20458;-68
2023/07/20 03:37:07;;;;;;;3.43;2.27;;;17.90;98.00;;;;;;5054121;28;20955;-68
2023/07/20 03:39:34;;;;;;;3.10;2.30;;;17.80;98.00;;;;;;5036534;28;20454;-68
2023/07/20 03:42:01;;;;;;;4.17;2.20;;;17.70;98.00;;;;;;5053917;28;20464;-68
2023/07/20 03:44:29;;;;;;;4.40;2.20;;;17.70;98.00;;;;;;5053711;28;20458;-68
2023/07/20 03:46:56;;;;;;;4.83;2.30;;;17.60;98.00;;;;;;5053616;28;20527;-68
2023/07/20 03:49:25;;;;;;;3.33;2.13;;;17.70;98.00;;;;;;5035928;28;20457;-68
2023/07/20 03:51:53;;;;;;;4.57;2.20;;;17.60;98.00;;;;;;5053631;28;20468;-68
2023/07/20 03:54:20;;;;;;;3.03;2.30;;;17.70;98.00;;;;;;5053429;28;20544;-68
2023/07/20 03:56:47;;;;;;;4.20;2.07;;;17.80;98.00;;;;;;5053468;28;20485;-68
2023/07/20 03:59:14;;;;;;;4.00;2.23;;;17.90;98.00;;;;;;5035705;28;20468;-68
2023/07/20 04:01:41;;;;;;;2.97;2.00;;;17.80;98.00;;;;;;5053379;28;20457;-68
2023/07/20 04:04:09;;;;;;;5.87;2.53;;;17.70;98.00;;;;;;5053286;28;20457;-68
2023/07/20 04:06:38;;;;;;;7.30;2.50;;;17.50;98.00;;;;;;5053093;28;20952;-68
2023/07/20 04:09:05;;;;;;;4.17;2.27;;;17.30;98.00;;;;;;5053266;28;20454;-68
2023/07/20 04:11:33;;;;;;;3.17;2.30;;;17.20;98.00;;;;;;5053185;28;20493;-68
2023/07/20 04:14:00;;;;;;;3.57;2.20;;;17.00;98.00;;;;;;5053266;28;20553;-68
2023/07/20 04:16:27;;;;;;;3.03;2.20;;;16.90;98.00;;;;;;5053036;28;20454;-68
2023/07/20 04:18:56;;;;;;;4.00;2.30;;;16.90;98.00;;;;;;5053087;28;20527;-68
2023/07/20 04:21:23;;;;;;;11.43;2.57;;;16.90;98.00;;;;;;5053205;28;20453;-68
2023/07/20 04:23:51;;;;;;;4.10;2.30;;;17.00;98.00;;;;;;5053240;28;20881;-68
2023/07/20 04:26:19;;;;;;;3.20;2.10;;;17.00;98.00;;;;;;5052990;28;20527;-68
2023/07/20 04:28:46;;;;;;;4.80;2.80;;;17.20;98.00;;;;;;5035182;28;20497;-68
2023/07/20 04:31:13;;;;;;;3.17;2.10;;;17.20;98.00;;;;;;5053277;28;20956;-68
2023/07/20 04:33:40;;;;;;;5.80;2.43;;;17.30;98.00;;;;;;5052977;28;20473;-68
2023/07/20 04:36:10;;;;;;;4.97;2.60;;;17.30;98.00;;;;;;5052853;28;20829;-68
2023/07/20 04:38:37;;;;;;;4.70;2.23;;;17.10;98.00;;;;;;5052132;28;20450;-68
2023/07/20 04:41:06;;;;;;;4.43;2.40;;;17.00;98.00;;;;;;5051936;28;20507;-68
2023/07/20 04:43:33;;;;;;;5.17;2.43;;;17.10;98.00;;;;;;5051980;28;20454;-68
2023/07/20 04:46:00;;;;;;;2.60;1.90;;;17.10;98.00;;;;;;5033561;28;20457;-68
2023/07/20 04:48:28;;;;;;;3.43;2.30;;;17.20;98.00;;;;;;5051755;28;20481;-68
2023/07/20 04:50:56;;;;;;;7.33;2.57;;;17.20;98.00;;;;;;5033949;28;20869;-68
2023/07/20 04:53:23;;;;;;;4.00;2.40;;;17.40;98.00;;;;;;5034193;28;21065;-67
2023/07/20 04:55:52;;;;;;;2.97;2.00;;;17.50;98.00;;;;;;5052072;28;20542;-68
2023/07/20 04:58:21;;;;;;;3.50;2.20;;;17.40;98.00;;;;;;5052280;28;20801;-68
2023/07/20 05:00:49;;;;;;;4.40;2.43;;;17.50;98.00;;;;;;5052203;28;20534;-68
2023/07/20 05:03:17;;;;;;;3.73;2.20;;;17.40;98.00;;;;;;5052413;28;20983;-68
2023/07/20 05:05:44;;;;;;;3.20;2.30;;;17.30;98.00;;;;;;5052083;28;20458;-68
2023/07/20 05:08:11;;;;;;;3.07;2.23;;;17.40;98.00;;;;;;5051378;28;20493;-68
2023/07/20 05:10:38;;;;;;;4.00;2.23;;;17.40;98.00;;;;;;5052081;28;20462;-68
2023/07/20 05:13:05;;;;;;;4.47;2.47;;;17.60;98.00;;;;;;5052115;28;20489;-68
2023/07/20 05:15:35;;;;;;;3.60;2.27;;;17.80;98.00;;;;;;5052078;28;20987;-68
2023/07/20 05:18:04;;;;;;;3.20;2.27;;;17.90;98.00;;;;;;5052109;28;20458;-68
2023/07/20 05:20:33;;;;;;;2.50;2.00;;;18.00;98.00;;;;;;5052112;28;20498;-68
2023/07/20 05:23:00;;;;;;;3.27;2.20;;;18.00;98.00;;;;;;5052004;28;20870;-68
2023/07/20 05:25:28;;;;;;;3.40;2.27;;;18.10;98.00;;;;;;5052082;28;20944;-68
2023/07/20 05:27:56;;;;;;;4.80;2.90;;;18.10;98.00;;;;;;5052306;28;20555;-68
2023/07/20 05:30:23;;;;;;;4.07;2.50;;;18.30;98.00;;;;;;5051864;28;21411;-68
2023/07/20 05:32:54;;;;;;;5.43;2.53;;;18.30;98.00;;;;;;5051785;28;20458;-68
2023/07/20 05:35:22;;;;;;;4.30;2.60;;;18.50;98.00;;;;;;5051891;28;20469;-68
2023/07/20 05:37:49;;;;;;;4.40;2.40;;;18.70;98.00;;;;;;5051503;28;20800;-68
2023/07/20 05:40:25;;;;;;;3.97;2.20;;;18.80;98.00;;;;;;5051704;28;20588;-68
2023/07/20 05:42:53;;;;;;;4.57;2.17;;;19.00;98.00;;;;;;5051473;28;20931;-68
2023/07/20 05:45:21;;;;;;;4.17;2.63;;;19.20;98.00;;;;;;5051742;28;20453;-69
2023/07/20 05:47:48;;;;;;;4.17;2.00;;;19.50;98.00;;;;;;5051653;28;20587;-69
2023/07/20 05:50:16;;;;;;;5.60;2.60;;;19.60;98.00;;;;;;5051595;28;20545;-68
2023/07/20 05:52:44;;;;;;;5.70;3.20;;;19.70;98.00;;;;;;5051728;28;20457;-68
2023/07/20 05:55:11;;;;;;;4.20;2.70;;;19.80;98.00;;;;;;5051663;28;20472;-69
2023/07/20 05:57:41;;;;;;;7.40;2.97;;;19.80;98.00;;;;;;5053925;28;20477;-68
2023/07/20 06:00:10;;;;;;;5.17;2.40;;;19.90;98.00;;;;;;5038421;28;20982;-69
2023/07/20 06:02:37;;;;;;;6.00;2.53;;;20.00;98.00;;;;;;5038173;28;20465;-69
2023/07/20 06:05:09;;;;;;;4.17;2.40;;;20.20;98.00;;;;;;5037906;28;20459;-68
2023/07/20 06:07:37;;;;;;;4.27;2.67;;;20.30;98.00;;;;;;5054875;28;20975;-68
2023/07/20 06:10:06;;;;;;;4.27;2.30;;;20.40;98.00;;;;;;5054939;28;20468;-63
2023/07/20 06:12:34;;;;;;;3.73;2.40;;;20.40;98.00;;;;;;5054808;28;20500;-63
2023/07/20 06:15:03;;;;;;;5.57;2.60;;;20.40;98.00;;;;;;5055071;28;20508;-63
2023/07/20 06:17:31;;;;;;;3.90;2.50;;;20.50;98.00;;;;;;5054735;28;20464;-63
2023/07/20 06:19:58;;;;;;;4.13;2.33;;;20.60;98.00;;;;;;5055004;28;20460;-63
2023/07/20 06:22:25;;;;;;;2.53;1.90;;;20.60;98.00;;;;;;5054325;28;20955;-63
2023/07/20 06:24:53;;;;;;;4.10;2.40;;;20.60;98.00;;;;;;5037299;28;20457;-63
2023/07/20 06:27:20;;;;;;;4.07;2.47;;;20.70;98.00;;;;;;5054481;28;20454;-63
2023/07/20 06:29:47;;;;;;;3.60;2.10;;;20.70;98.00;;;;;;5054520;28;20465;-63
2023/07/20 06:32:15;;;;;;;4.13;2.50;;;20.80;98.00;;;;;;5054327;28;20454;-63
2023/07/20 06:34:42;;;;;;;4.20;2.60;;;20.90;98.00;;;;;;5054375;28;20488;-63
2023/07/20 06:37:09;;;;;;;7.50;2.33;;;20.90;98.00;;;;;;5054280;28;20510;-63
2023/07/20 06:39:36;;;;;;;4.17;2.40;;;20.90;98.00;;;;;;5054241;28;20965;-63
2023/07/20 06:42:05;;;;;;;8.00;2.00;;;21.10;98.00;;;;;;5054254;28;20457;-63
2023/07/20 06:44:32;;;;;;;9.10;2.20;;;21.20;98.00;;;;;;5054281;28;20463;-63
2023/07/20 06:46:59;;;;;;;3.23;2.20;;;21.00;98.00;;;;;;5053845;28;20454;-63
2023/07/20 06:49:27;;;;;;;3.40;2.20;;;20.90;98.00;;;;;;5054119;28;20852;-63
2023/07/20 06:51:54;;;;;;;4.87;2.27;;;21.10;98.00;;;;;;5036565;28;20484;-63
2023/07/20 06:54:21;;;;;;;7.07;1.93;;;21.00;98.00;;;;;;5054166;28;20813;-63
2023/07/20 06:56:49;;;;;;;4.10;2.60;;;21.10;98.00;;;;;;5053781;28;20449;-63
2023/07/20 06:59:17;;;;;;;5.40;2.40;;;21.10;98.00;;;;;;5054198;28;20452;-63
2023/07/20 07:01:44;;;;;;;5.10;2.10;;;21.10;98.00;;;;;;5053851;28;20465;-63
2023/07/20 07:04:12;;;;;;;3.17;2.20;;;21.20;98.00;;;;;;5053988;28;20461;-63
2023/07/20 07:06:39;;;;;;;2.77;2.00;;;21.20;98.00;;;;;;5053777;28;20970;-63
2023/07/20 07:09:08;;;;;;;3.30;1.80;;;21.30;97.70;;;;;;5053142;28;20503;-63
2023/07/20 07:11:35;;;;;;;4.33;2.37;;;21.30;97.50;;;;;;5042097;28;20442;-63
2023/07/20 07:14:02;;;;;;;3.10;2.10;;;21.40;97.40;;;;;;5033818;28;20458;-63
2023/07/20 07:16:31;;;;;;;4.23;1.93;;;21.30;97.80;;;;;;5016299;28;20461;-63
2023/07/20 07:18:59;;;;;;;3.50;2.33;;;21.10;98.00;;;;;;5033914;28;20465;-63
2023/07/20 07:21:28;;;;;;;3.30;2.20;;;21.10;98.00;;;;;;5033440;28;20967;-63
2023/07/20 07:23:57;;;;;;;2.50;1.87;;;21.20;98.00;;;;;;5016426;28;20861;-63
2023/07/20 07:26:24;;;;;;;5.00;2.13;;;21.30;98.00;;;;;;5033319;28;20457;-64
2023/07/20 07:28:54;;;;;;;4.17;2.30;;;21.30;98.00;;;;;;5033445;28;20494;-63
2023/07/20 07:31:23;;;;;;;5.63;2.60;;;21.30;98.00;;;;;;5033407;28;20446;-63
2023/07/20 07:33:51;;;;;;;3.93;2.50;;;21.40;98.00;;;;;;5032207;28;20948;-63
2023/07/20 07:36:19;;;;;;;3.93;2.30;;;21.60;98.00;;;;;;5033012;28;20494;-63
2023/07/20 07:38:47;;;;;;;4.20;2.00;;;21.90;97.40;;;;;;5033159;28;20458;-63
2023/07/20 07:41:15;;;;;;;4.10;2.33;;;22.00;97.30;;;;;;5032912;28;20451;-63
2023/07/20 07:43:43;;;;;;;3.97;2.37;;;22.00;97.60;;;;;;5032989;28;20458;-63
2023/07/20 07:46:10;;;;;;;4.37;2.50;;;21.90;97.60;;;;;;5032965;28;20541;-63
2023/07/20 07:48:37;;;;;;;3.07;2.10;;;22.00;97.70;;;;;;5032819;28;20482;-63
2023/07/20 07:51:05;;;;;;;3.70;2.30;;;22.20;98.00;;;;;;5032915;28;20462;-63
2023/07/20 07:53:33;;;;;;;3.67;2.27;;;22.30;96.20;;;;;;5032709;28;21017;-64
2023/07/20 07:56:03;;;;;;;5.40;2.40;;;22.40;96.80;;;;;;5015440;28;20493;-64
2023/07/20 07:58:31;;;;;;;3.73;2.20;;;22.40;96.90;;;;;;5031876;28;20462;-64
2023/07/20 08:00:58;;;;;;;3.83;2.50;;;22.40;96.60;;;;;;5043176;28;20968;-64
2023/07/20 08:03:26;;;;;;;3.53;2.30;;;22.50;96.10;;;;;;5052636;28;20454;-64
2023/07/20 08:05:55;;;;;;;6.40;2.43;;;22.60;96.00;;;;;;5052465;28;20457;-64
2023/07/20 08:08:24;;;;;;;3.50;2.17;;;22.50;95.70;;;;;;5052363;28;20845;-64
2023/07/20 08:10:54;;;;;;;5.03;2.53;;;22.50;96.20;;;;;;5052573;28;20830;-63
2023/07/20 08:13:21;;;;;;;3.13;2.27;;;22.60;95.70;;;;;;5052970;28;20458;-64
2023/07/20 08:15:51;;;;;;;4.03;2.20;;;22.60;96.00;;;;;;5053143;28;20458;-64
2023/07/20 08:18:18;;;;;;;3.27;2.30;;;22.60;96.70;;;;;;5052988;28;20486;-64
2023/07/20 08:20:46;;;;;;;3.83;2.30;;;22.70;95.00;;;;;;5034203;28;20469;-64
2023/07/20 08:23:13;;;;;;;5.27;2.63;;;22.70;94.30;;;;;;5041972;28;20458;-63
2023/07/20 08:25:43;;;;;;;3.77;2.40;;;22.60;94.30;;;;;;5015329;28;20469;-64
2023/07/20 08:28:14;;;;;;;4.47;2.73;;;22.50;94.90;;;;;;5032539;28;20478;-64
2023/07/20 08:30:42;;;;;;;4.87;2.40;;;22.50;95.50;;;;;;5032116;28;20463;-63
2023/07/20 08:33:11;;;;;;;3.40;2.23;;;22.50;95.40;;;;;;5032042;28;20542;-63
2023/07/20 08:35:38;;;;;;;3.60;2.00;;;22.60;95.50;;;;;;5031392;28;20463;-64
2023/07/20 08:38:05;;;;;;;4.20;1.97;;;22.70;94.40;;;;;;5032780;28;20463;-63
2023/07/20 08:40:33;;;;;;;2.80;2.20;;;22.80;96.20;;;;;;5032860;28;20481;-63
2023/07/20 08:43:01;;;;;;;4.00;2.23;;;23.00;96.10;;;;;;5032788;28;20478;-63
2023/07/20 08:45:30;;;;;;;4.93;2.20;;;23.20;94.80;;;;;;5032515;28;20486;-63
2023/07/20 08:47:59;;;;;;;4.80;2.47;;;23.10;93.40;;;;;;5013970;28;20447;-64
2023/07/20 08:50:28;;;;;;;4.03;2.43;;;23.00;93.40;;;;;;5012633;28;20495;-63
2023/07/20 08:52:59;;;;;;;4.40;2.20;;;22.80;94.20;;;;;;5012864;28;20478;-60
2023/07/20 08:55:27;;;;;;;3.47;2.40;;;23.10;95.20;;;;;;5012720;28;20456;-61
2023/07/20 08:57:56;;;;;;;3.57;2.40;;;23.20;93.10;;;;;;5012697;28;20494;-65
2023/07/20 09:00:33;;;;;;;3.40;2.40;;;23.50;94.10;;;;;;5012590;28;20460;-64
2023/07/20 09:03:03;;;;;;;5.60;2.50;;;23.70;94.00;;;;;;5012748;28;20977;-64
2023/07/20 09:05:30;;;;;;;3.47;2.27;;;24.00;91.90;;;;;;5012504;28;20463;-64
2023/07/20 09:07:57;;;;;;;3.90;2.60;;;24.20;90.00;;;;;;5011802;28;20459;-63
2023/07/20 09:10:25;;;;;;;2.40;2.10;;;24.00;89.90;;;;;;5011606;28;20751;-64
2023/07/20 09:12:52;;;;;;;3.17;2.30;;;23.80;91.40;;;;;;5011997;28;20452;-63
2023/07/20 09:15:21;;;;;;;4.57;2.50;;;23.70;91.80;;;;;;5011704;28;20460;-63
2023/07/20 09:17:53;;;;;;;3.30;2.53;;;23.40;92.20;;;;;;5011925;28;20451;-63
2023/07/20 09:20:21;;;;;;;4.77;2.80;;;23.40;92.90;;;;;;5012372;28;20447;-63
2023/07/20 09:22:50;;;;;;;4.27;2.50;;;23.20;92.80;;;;;;5012081;28;20459;-63
2023/07/20 09:25:19;;;;;;;6.50;2.70;;;23.20;92.70;;;;;;4993948;28;20546;-63
2023/07/20 09:27:47;;;;;;;3.90;2.53;;;23.20;93.20;;;;;;5011464;28;20950;-63
2023/07/20 09:30:16;;;;;;;3.80;2.30;;;23.20;93.50;;;;;;5011257;28;20484;-63
2023/07/20 09:32:44;;;;;;;3.47;2.37;;;23.20;93.20;;;;;;5011667;28;20478;-63
2023/07/20 09:35:17;;;;;;;5.13;2.50;;;23.10;92.90;;;;;;5011537;28;20467;-63
2023/07/20 09:37:51;;;;;;;7.43;2.90;;;23.30;94.30;;;;;;5010861;28;21016;-63
2023/07/20 09:40:19;;;;;;;3.70;2.50;;;23.60;92.70;;;;;;5011541;28;20517;-63
2023/07/20 09:42:47;;;;;;;4.40;2.50;;;23.70;91.40;;;;;;5010887;28;21212;-63
2023/07/20 09:45:17;;;;;;;2.90;2.30;;;23.70;91.90;;;;;;5011513;28;20930;-63
2023/07/20 09:47:44;;;;;;;3.70;2.63;;;23.60;91.50;;;;;;5010919;28;20464;-63
2023/07/20 09:50:12;;;;;;;8.37;2.57;;;23.40;91.00;;;;;;4993950;28;20491;-63
2023/07/20 09:52:43;;;;;;;4.87;2.40;;;23.30;90.40;;;;;;4993826;28;20819;-64
2023/07/20 09:55:12;;;;;;;4.00;2.23;;;23.40;90.40;;;;;;5011467;28;20887;-64
2023/07/20 09:57:39;;;;;;;3.60;2.57;;;23.60;91.20;;;;;;5011231;28;20471;-64
2023/07/20 10:00:12;;;;;;;3.60;2.40;;;24.00;92.30;;;;;;5028290;28;20467;-64
2023/07/20 10:02:44;;;;;;;2.83;2.20;;;24.40;88.50;;;;;;5018842;28;20455;-63
2023/07/20 10:05:14;;;;;;;3.80;2.47;;;24.80;88.50;;;;;;5031299;28;20592;-63
2023/07/20 10:07:48;;;;;;;5.40;2.30;;;25.10;86.50;;;;;;5031002;28;20465;-64
2023/07/20 10:10:17;;;;;;;3.63;2.50;;;25.40;86.30;;;;;;5021449;28;20498;-64
2023/07/20 10:12:47;;;;;;;3.20;2.33;;;25.50;84.60;;;;;;5027080;28;20537;-64
2023/07/20 10:15:22;;;;;;;5.20;2.40;;;25.30;84.40;;;;;;5030985;28;20462;-63
2023/07/20 10:17:58;;;;;;;3.60;2.50;;;25.00;83.90;;;;;;5030772;28;20536;-63
2023/07/20 10:20:27;;;;;;;3.00;2.20;;;24.70;85.20;;;;;;5030395;28;20477;-63
2023/07/20 10:22:57;;;;;;;3.30;2.30;;;24.40;86.30;;;;;;5030607;28;20463;-63
2023/07/20 10:25:25;;;;;;;3.70;2.20;;;24.40;87.70;;;;;;5030170;28;20462;-64
2023/07/20 10:27:52;;;;;;;2.70;2.20;;;24.40;87.30;;;;;;5030323;28;20463;-64
2023/07/20 10:30:20;;;;;;;3.50;2.70;;;24.50;87.00;;;;;;5031035;28;20569;-63
2023/07/20 10:32:48;;;;;;;2.80;2.20;;;24.60;86.90;;;;;;5031027;28;20544;-64
2023/07/20 10:35:17;;;;;;;3.57;2.33;;;24.80;86.90;;;;;;5030418;28;20500;-64
2023/07/20 10:37:54;;;;;;;2.60;2.10;;;25.00;85.20;;;;;;5029864;28;20520;-64
2023/07/20 10:40:31;;;;;;;3.67;2.40;;;25.20;82.30;;;;;;5030751;28;20882;-64
2023/07/20 10:43:03;;;;;;;3.13;2.47;;;25.30;83.20;;;;;;5031792;28;20545;-64
2023/07/20 10:45:52;;;;;;;3.50;2.50;;;25.50;82.10;;;;;;5035167;28;20451;-64
2023/07/20 10:48:21;;;;;;;3.40;2.30;;;25.70;82.40;;;;;;5029337;28;20461;-64
2023/07/20 10:51:12;;;;;;;3.60;2.40;;;25.90;81.00;;;;;;5034898;28;20489;-64
2023/07/20 10:53:40;;;;;;;3.57;2.40;;;26.10;79.70;;;;;;5034553;28;20498;-64
2023/07/20 10:56:12;;;;;;;3.60;2.37;;;26.20;81.20;;;;;;5034595;28;20469;-64
2023/07/20 10:58:39;;;;;;;4.93;2.60;;;26.40;81.80;;;;;;5034619;28;20484;-64
2023/07/20 11:01:06;;;;;;;2.93;2.27;;;26.70;80.50;;;;;;5034865;28;20458;-64
2023/07/20 11:03:34;;;;;;;2.93;2.20;;;26.70;80.10;;;;;;5034479;28;20828;-63
2023/07/20 11:06:33;;;;;;;3.37;2.23;;;26.30;79.60;;;;;;5034705;28;20463;-64
2023/07/20 11:09:06;;;;;;;3.23;2.20;;;25.90;79.90;;;;;;5034336;28;20835;-64
2023/07/20 11:11:38;;;;;;;2.63;2.13;;;26.00;80.50;;;;;;5034481;28;20469;-63
2023/07/20 11:14:06;;;;;;;3.57;2.40;;;26.20;79.70;;;;;;5034087;28;20473;-63
2023/07/20 11:16:38;;;;;;;2.80;2.10;;;26.60;78.50;;;;;;5034373;28;20458;-63
2023/07/20 11:19:06;;;;;;;2.50;2.00;;;26.80;78.40;;;;;;5034235;28;20941;-64
2023/07/20 11:21:38;;;;;;;2.20;2.00;;;26.80;76.20;;;;;;5034189;28;20451;-63
2023/07/20 11:24:06;;;;;;;3.50;2.20;;;26.80;76.70;;;;;;5034131;28;20466;-63
2023/07/20 11:26:45;;;;;;;2.60;1.90;;;27.10;76.10;;;;;;5016442;28;20450;-63
2023/07/20 11:29:12;;;;;;;2.50;1.97;;;27.50;76.00;;;;;;5033929;28;20482;-63
2023/07/20 11:31:41;;;;;;;2.93;1.80;;;27.90;76.90;;;;;;5033823;28;20458;-63
2023/07/20 11:34:11;;;;;;;2.80;1.93;;;27.70;74.60;;;;;;5033498;28;20459;-63
2023/07/20 11:36:40;;;;;;;2.10;1.90;;;27.60;75.10;;;;;;5034135;28;20454;-63
2023/07/20 11:39:10;;;;;;;3.00;2.27;;;27.90;74.40;;;;;;5016491;28;20458;-64
2023/07/20 11:41:37;;;;;;;3.47;2.03;;;28.00;74.20;;;;;;5016503;28;20454;-64
2023/07/20 11:44:07;;;;;;;5.10;1.90;;;27.80;74.80;;;;;;5033913;28;20512;-63
2023/07/20 11:46:35;;;;;;;2.33;1.90;;;27.80;72.80;;;;;;5034034;28;20799;-63
2023/07/20 11:49:03;;;;;;;2.73;1.97;;;28.20;74.10;;;;;;5033640;28;20466;-64
2023/07/20 11:51:32;;;;;;;3.10;2.40;;;28.70;73.80;;;;;;5023838;28;20518;-67
2023/07/20 11:53:59;;;;;;;2.30;1.97;;;29.10;74.40;;;;;;5030367;28;20481;-67
2023/07/20 11:56:28;;;;;;;3.63;1.90;;;29.50;72.40;;;;;;5015632;28;20525;-67
2023/07/20 11:59:01;;;;;;;3.83;2.27;;;29.70;70.40;;;;;;5032920;28;20481;-67
2023/07/20 12:01:31;;;;;;;2.37;2.00;;;29.80;69.30;;;;;;5033521;28;20469;-65
2023/07/20 12:04:01;;;;;;;2.13;1.77;;;29.70;69.60;;;;;;5033108;28;20976;-64
2023/07/20 12:06:29;;;;;;;3.50;2.03;;;29.60;69.90;;;;;;5033272;28;20544;-64
2023/07/20 12:08:58;;;;;;;3.10;2.13;;;29.60;70.90;;;;;;5033147;28;20459;-63
2023/07/20 12:11:35;;;;;;;3.30;2.00;;;29.70;69.30;;;;;;5032984;28;21130;-63
2023/07/20 12:14:03;;;;;;;3.30;2.10;;;29.90;70.40;;;;;;5015656;28;20512;-63
2023/07/20 12:16:32;;;;;;;2.63;1.90;;;30.00;68.60;;;;;;5015614;28;20465;-62
2023/07/20 12:19:03;;;;;;;2.70;2.00;;;30.30;69.10;;;;;;5033164;28;20455;-63
2023/07/20 12:21:31;;;;;;;2.37;1.90;;;30.20;67.30;;;;;;5033151;28;20455;-63
2023/07/20 12:23:59;;;;;;;3.00;2.20;;;29.90;69.00;;;;;;5033209;28;20546;-64
2023/07/20 12:26:27;;;;;;;3.13;2.20;;;30.00;68.50;;;;;;5032956;28;20459;-62
2023/07/20 12:28:54;;;;;;;3.90;1.90;;;29.70;67.80;;;;;;5033024;28;20462;-65
2023/07/20 12:31:23;;;;;;;2.00;1.77;;;29.80;69.10;;;;;;5032883;28;20984;-62
2023/07/20 12:33:51;;;;;;;4.90;2.03;;;29.80;69.10;;;;;;5015562;28;20462;-62
2023/07/20 12:36:19;;;;;;;2.27;1.93;;;29.50;67.10;;;;;;5032844;28;20454;-62
2023/07/20 12:38:46;;;;;;;3.90;2.13;;;29.10;69.60;;;;;;5032920;28;20462;-62
2023/07/20 12:41:14;;;;;;;2.30;2.00;;;29.40;68.80;;;;;;5032932;28;20459;-62
2023/07/20 12:43:41;;;;;;;2.03;1.80;;;29.90;69.60;;;;;;5032990;28;20466;-62
2023/07/20 12:46:09;;;;;;;4.00;2.13;;;29.80;68.90;;;;;;5032960;28;20616;-62
2023/07/20 12:48:40;;;;;;;2.87;1.90;;;29.60;67.00;;;;;;5015605;28;20455;-64
2023/07/20 12:51:18;;;;;;;2.70;2.17;;;29.80;66.30;;;;;;5032604;28;20590;-64
2023/07/20 12:53:45;;;;;;;2.87;1.90;;;30.00;67.30;;;;;;5032654;28;20455;-64
2023/07/20 12:56:12;;;;;;;2.37;1.90;;;30.00;65.80;;;;;;5031220;28;20466;-63